sensor_id;sensor_type;location;lat;lon;timestamp;temperature;humidity
78793;SHT31;68134;51.984;5.652;2023-11-21T00:00:48;10.7;70.9
78793;SHT31;68134;51.984;5.652;2023-11-21T00:03:16;10.7;71.2
78793;SHT31;68134;51.984;5.652;2023-11-21T00:05:45;10.7;71.6
78793;SHT31;68134;51.984;5.652;2023-11-21T00:08:14;10.6;71.2
78793;SHT31;68134;51.984;5.652;2023-11-21T00:10:43;10.6;70.9
78793;SHT31;68134;51.984;5.652;2023-11-21T00:13:11;10.6;71.6
78793;SHT31;68134;51.984;5.652;2023-11-21T00:15:40;10.5;71.7
78793;SHT31;68134;51.984;5.652;2023-11-21T00:18:09;10.5;72.2
78793;SHT31;68134;51.984;5.652;2023-11-21T00:20:37;10.5;71.7
78793;SHT31;68134;51.984;5.652;2023-11-21T00:23:06;10.4;72.4
78793;SHT31;68134;51.984;5.652;2023-11-21T00:25:35;10.4;72.5
78793;SHT31;68134;51.984;5.652;2023-11-21T00:28:04;10.4;72.0
78793;SHT31;68134;51.984;5.652;2023-11-21T00:30:33;10.4;72.2
78793;SHT31;68134;51.984;5.652;2023-11-21T00:33:01;10.3;72.7
78793;SHT31;68134;51.984;5.652;2023-11-21T00:35:30;10.3;72.7
78793;SHT31;68134;51.984;5.652;2023-11-21T00:37:59;10.3;73.2
78793;SHT31;68134;51.984;5.652;2023-11-21T00:40:29;10.3;72.8
78793;SHT31;68134;51.984;5.652;2023-11-21T00:42:58;10.2;72.6
78793;SHT31;68134;51.984;5.652;2023-11-21T00:45:29;10.2;72.3
78793;SHT31;68134;51.984;5.652;2023-11-21T00:47:57;10.2;72.4
78793;SHT31;68134;51.984;5.652;2023-11-21T00:50:26;10.2;72.1
78793;SHT31;68134;51.984;5.652;2023-11-21T00:52:54;10.1;72.5
78793;SHT31;68134;51.984;5.652;2023-11-21T00:55:23;10.1;72.8
78793;SHT31;68134;51.984;5.652;2023-11-21T00:57:52;10.1;72.7
78793;SHT31;68134;51.984;5.652;2023-11-21T01:00:21;10.1;72.4
78793;SHT31;68134;51.984;5.652;2023-11-21T01:02:50;10.0;73.0
78793;SHT31;68134;51.984;5.652;2023-11-21T01:05:19;10.0;72.2
78793;SHT31;68134;51.984;5.652;2023-11-21T01:07:47;10.0;71.7
78793;SHT31;68134;51.984;5.652;2023-11-21T01:10:16;10.0;72.3
78793;SHT31;68134;51.984;5.652;2023-11-21T01:12:45;10.0;73.0
78793;SHT31;68134;51.984;5.652;2023-11-21T01:15:15;9.9;72.7
78793;SHT31;68134;51.984;5.652;2023-11-21T01:17:45;9.9;72.5
78793;SHT31;68134;51.984;5.652;2023-11-21T01:20:14;9.9;73.0
78793;SHT31;68134;51.984;5.652;2023-11-21T01:22:43;9.9;73.6
78793;SHT31;68134;51.984;5.652;2023-11-21T01:25:15;9.9;74.1
78793;SHT31;68134;51.984;5.652;2023-11-21T01:27:43;9.9;73.4
78793;SHT31;68134;51.984;5.652;2023-11-21T01:30:12;9.9;72.8
78793;SHT31;68134;51.984;5.652;2023-11-21T01:32:42;9.9;73.1
78793;SHT31;68134;51.984;5.652;2023-11-21T01:35:11;9.9;73.7
78793;SHT31;68134;51.984;5.652;2023-11-21T01:37:39;10.0;74.9
78793;SHT31;68134;51.984;5.652;2023-11-21T01:40:12;10.0;74.9
78793;SHT31;68134;51.984;5.652;2023-11-21T01:42:41;10.0;74.7
78793;SHT31;68134;51.984;5.652;2023-11-21T01:45:11;10.0;74.5
78793;SHT31;68134;51.984;5.652;2023-11-21T01:47:40;10.0;74.7
78793;SHT31;68134;51.984;5.652;2023-11-21T01:50:14;10.0;74.6
78793;SHT31;68134;51.984;5.652;2023-11-21T01:52:45;10.0;74.8
78793;SHT31;68134;51.984;5.652;2023-11-21T01:55:16;10.1;74.8
78793;SHT31;68134;51.984;5.652;2023-11-21T01:57:46;10.1;74.1
78793;SHT31;68134;51.984;5.652;2023-11-21T02:00:16;10.1;73.6
78793;SHT31;68134;51.984;5.652;2023-11-21T02:02:46;10.1;73.8
78793;SHT31;68134;51.984;5.652;2023-11-21T02:05:17;10.0;73.1
78793;SHT31;68134;51.984;5.652;2023-11-21T02:07:48;10.0;73.5
78793;SHT31;68134;51.984;5.652;2023-11-21T02:10:18;10.0;73.2
78793;SHT31;68134;51.984;5.652;2023-11-21T02:12:49;10.0;73.2
78793;SHT31;68134;51.984;5.652;2023-11-21T02:15:19;10.0;73.1
78793;SHT31;68134;51.984;5.652;2023-11-21T02:17:50;10.0;72.8
78793;SHT31;68134;51.984;5.652;2023-11-21T02:20:21;10.0;73.0
78793;SHT31;68134;51.984;5.652;2023-11-21T02:22:52;9.9;73.3
78793;SHT31;68134;51.984;5.652;2023-11-21T02:25:24;9.9;73.6
78793;SHT31;68134;51.984;5.652;2023-11-21T02:27:54;9.9;73.5
78793;SHT31;68134;51.984;5.652;2023-11-21T02:30:23;9.9;74.1
78793;SHT31;68134;51.984;5.652;2023-11-21T02:32:54;9.9;74.3
78793;SHT31;68134;51.984;5.652;2023-11-21T02:35:24;9.9;74.2
78793;SHT31;68134;51.984;5.652;2023-11-21T02:37:53;9.9;74.6
78793;SHT31;68134;51.984;5.652;2023-11-21T02:40:22;9.9;75.2
78793;SHT31;68134;51.984;5.652;2023-11-21T02:42:52;9.9;75.2
78793;SHT31;68134;51.984;5.652;2023-11-21T02:45:21;9.9;75.8
78793;SHT31;68134;51.984;5.652;2023-11-21T02:47:52;9.9;75.4
78793;SHT31;68134;51.984;5.652;2023-11-21T02:50:23;10.0;75.8
78793;SHT31;68134;51.984;5.652;2023-11-21T02:52:51;10.0;76.3
78793;SHT31;68134;51.984;5.652;2023-11-21T02:55:21;10.0;76.5
78793;SHT31;68134;51.984;5.652;2023-11-21T02:57:51;10.1;76.0
78793;SHT31;68134;51.984;5.652;2023-11-21T03:00:22;10.1;76.2
78793;SHT31;68134;51.984;5.652;2023-11-21T03:02:53;10.1;76.4
78793;SHT31;68134;51.984;5.652;2023-11-21T03:05:21;10.1;76.6
78793;SHT31;68134;51.984;5.652;2023-11-21T03:07:50;10.2;76.4
78793;SHT31;68134;51.984;5.652;2023-11-21T03:10:18;10.2;76.2
78793;SHT31;68134;51.984;5.652;2023-11-21T03:12:47;10.2;75.9
78793;SHT31;68134;51.984;5.652;2023-11-21T03:15:16;10.3;75.5
78793;SHT31;68134;51.984;5.652;2023-11-21T03:17:44;10.3;75.1
78793;SHT31;68134;51.984;5.652;2023-11-21T03:20:17;10.3;75.0
78793;SHT31;68134;51.984;5.652;2023-11-21T03:22:46;10.3;75.0
78793;SHT31;68134;51.984;5.652;2023-11-21T03:25:17;10.3;75.2
78793;SHT31;68134;51.984;5.652;2023-11-21T03:27:46;10.3;75.1
78793;SHT31;68134;51.984;5.652;2023-11-21T03:30:15;10.3;75.3
78793;SHT31;68134;51.984;5.652;2023-11-21T03:32:44;10.4;75.5
78793;SHT31;68134;51.984;5.652;2023-11-21T03:35:12;10.4;75.5
78793;SHT31;68134;51.984;5.652;2023-11-21T03:37:41;10.4;76.1
78793;SHT31;68134;51.984;5.652;2023-11-21T03:40:10;10.4;76.0
78793;SHT31;68134;51.984;5.652;2023-11-21T03:42:39;10.5;76.2
78793;SHT31;68134;51.984;5.652;2023-11-21T03:45:09;10.5;76.0
78793;SHT31;68134;51.984;5.652;2023-11-21T03:47:38;10.5;76.1
78793;SHT31;68134;51.984;5.652;2023-11-21T03:50:08;10.6;75.8
78793;SHT31;68134;51.984;5.652;2023-11-21T03:52:37;10.6;75.9
78793;SHT31;68134;51.984;5.652;2023-11-21T03:55:06;10.6;75.7
78793;SHT31;68134;51.984;5.652;2023-11-21T03:57:35;10.7;75.6
78793;SHT31;68134;51.984;5.652;2023-11-21T04:00:04;10.7;75.6
78793;SHT31;68134;51.984;5.652;2023-11-21T04:02:35;10.7;75.6
78793;SHT31;68134;51.984;5.652;2023-11-21T04:05:03;10.8;75.4
78793;SHT31;68134;51.984;5.652;2023-11-21T04:07:35;10.8;75.3
78793;SHT31;68134;51.984;5.652;2023-11-21T04:10:05;10.8;75.2
78793;SHT31;68134;51.984;5.652;2023-11-21T04:12:37;10.8;75.2
78793;SHT31;68134;51.984;5.652;2023-11-21T04:15:06;10.9;75.2
78793;SHT31;68134;51.984;5.652;2023-11-21T04:17:37;10.9;75.3
78793;SHT31;68134;51.984;5.652;2023-11-21T04:20:07;10.9;75.3
78793;SHT31;68134;51.984;5.652;2023-11-21T04:22:38;10.9;75.4
78793;SHT31;68134;51.984;5.652;2023-11-21T04:25:11;10.9;75.4
78793;SHT31;68134;51.984;5.652;2023-11-21T04:27:42;10.9;75.4
78793;SHT31;68134;51.984;5.652;2023-11-21T04:30:11;11.0;75.6
78793;SHT31;68134;51.984;5.652;2023-11-21T04:32:41;11.0;75.6
78793;SHT31;68134;51.984;5.652;2023-11-21T04:35:10;11.0;75.5
78793;SHT31;68134;51.984;5.652;2023-11-21T04:37:39;11.0;75.5
78793;SHT31;68134;51.984;5.652;2023-11-21T04:40:08;11.0;75.6
78793;SHT31;68134;51.984;5.652;2023-11-21T04:42:36;11.0;75.6
78793;SHT31;68134;51.984;5.652;2023-11-21T04:45:06;11.0;75.4
78793;SHT31;68134;51.984;5.652;2023-11-21T04:47:38;11.0;75.4
78793;SHT31;68134;51.984;5.652;2023-11-21T04:50:07;11.0;75.4
78793;SHT31;68134;51.984;5.652;2023-11-21T04:52:35;11.0;75.4
78793;SHT31;68134;51.984;5.652;2023-11-21T04:55:05;11.1;75.8
78793;SHT31;68134;51.984;5.652;2023-11-21T04:57:36;11.1;75.7
78793;SHT31;68134;51.984;5.652;2023-11-21T05:00:05;11.1;75.7
78793;SHT31;68134;51.984;5.652;2023-11-21T05:02:34;11.1;75.7
78793;SHT31;68134;51.984;5.652;2023-11-21T05:05:04;11.1;75.7
78793;SHT31;68134;51.984;5.652;2023-11-21T05:07:34;11.1;75.9
78793;SHT31;68134;51.984;5.652;2023-11-21T05:10:04;11.1;76.0
78793;SHT31;68134;51.984;5.652;2023-11-21T05:12:34;11.1;75.9
78793;SHT31;68134;51.984;5.652;2023-11-21T05:15:06;11.1;75.9
78793;SHT31;68134;51.984;5.652;2023-11-21T05:17:36;11.2;75.9
78793;SHT31;68134;51.984;5.652;2023-11-21T05:20:06;11.2;76.0
78793;SHT31;68134;51.984;5.652;2023-11-21T05:22:36;11.2;76.0
78793;SHT31;68134;51.984;5.652;2023-11-21T05:25:06;11.2;75.9
78793;SHT31;68134;51.984;5.652;2023-11-21T05:27:35;11.2;76.0
78793;SHT31;68134;51.984;5.652;2023-11-21T05:30:05;11.2;76.1
78793;SHT31;68134;51.984;5.652;2023-11-21T05:32:36;11.2;76.2
78793;SHT31;68134;51.984;5.652;2023-11-21T05:35:05;11.2;76.1
78793;SHT31;68134;51.984;5.652;2023-11-21T05:37:38;11.2;76.2
78793;SHT31;68134;51.984;5.652;2023-11-21T05:40:08;11.2;76.2
78793;SHT31;68134;51.984;5.652;2023-11-21T05:42:37;11.2;76.2
78793;SHT31;68134;51.984;5.652;2023-11-21T05:45:09;11.3;76.2
78793;SHT31;68134;51.984;5.652;2023-11-21T05:47:40;11.3;76.2
78793;SHT31;68134;51.984;5.652;2023-11-21T05:50:10;11.3;76.3
78793;SHT31;68134;51.984;5.652;2023-11-21T05:52:42;11.3;76.2
78793;SHT31;68134;51.984;5.652;2023-11-21T05:55:11;11.3;76.3
78793;SHT31;68134;51.984;5.652;2023-11-21T05:57:41;11.3;76.4
78793;SHT31;68134;51.984;5.652;2023-11-21T06:00:12;11.3;76.4
78793;SHT31;68134;51.984;5.652;2023-11-21T06:02:46;11.3;76.5
78793;SHT31;68134;51.984;5.652;2023-11-21T06:05:17;11.3;76.6
78793;SHT31;68134;51.984;5.652;2023-11-21T06:07:48;11.3;76.6
78793;SHT31;68134;51.984;5.652;2023-11-21T06:10:17;11.3;76.6
78793;SHT31;68134;51.984;5.652;2023-11-21T06:12:46;11.3;76.6
78793;SHT31;68134;51.984;5.652;2023-11-21T06:15:15;11.3;76.6
78793;SHT31;68134;51.984;5.652;2023-11-21T06:17:45;11.3;76.7
78793;SHT31;68134;51.984;5.652;2023-11-21T06:20:18;11.3;76.7
78793;SHT31;68134;51.984;5.652;2023-11-21T06:22:49;11.3;76.9
78793;SHT31;68134;51.984;5.652;2023-11-21T06:25:18;11.3;76.9
78793;SHT31;68134;51.984;5.652;2023-11-21T06:27:48;11.3;77.0
78793;SHT31;68134;51.984;5.652;2023-11-21T06:30:18;11.3;76.9
78793;SHT31;68134;51.984;5.652;2023-11-21T06:32:47;11.3;76.9
78793;SHT31;68134;51.984;5.652;2023-11-21T06:35:17;11.3;77.0
78793;SHT31;68134;51.984;5.652;2023-11-21T06:37:46;11.3;77.0
78793;SHT31;68134;51.984;5.652;2023-11-21T06:40:15;11.3;77.0
78793;SHT31;68134;51.984;5.652;2023-11-21T06:42:44;11.4;77.1
78793;SHT31;68134;51.984;5.652;2023-11-21T06:45:13;11.4;77.1
78793;SHT31;68134;51.984;5.652;2023-11-21T06:47:43;11.4;77.0
78793;SHT31;68134;51.984;5.652;2023-11-21T06:50:12;11.4;76.9
78793;SHT31;68134;51.984;5.652;2023-11-21T06:52:41;11.4;76.8
78793;SHT31;68134;51.984;5.652;2023-11-21T06:55:10;11.4;76.8
78793;SHT31;68134;51.984;5.652;2023-11-21T06:57:38;11.4;76.9
78793;SHT31;68134;51.984;5.652;2023-11-21T07:00:08;11.4;77.0
78793;SHT31;68134;51.984;5.652;2023-11-21T07:02:37;11.4;77.1
78793;SHT31;68134;51.984;5.652;2023-11-21T07:05:07;11.3;77.1
78793;SHT31;68134;51.984;5.652;2023-11-21T07:07:36;11.3;77.2
78793;SHT31;68134;51.984;5.652;2023-11-21T07:10:05;11.3;77.3
78793;SHT31;68134;51.984;5.652;2023-11-21T07:12:34;11.3;77.4
78793;SHT31;68134;51.984;5.652;2023-11-21T07:15:03;11.3;77.4
78793;SHT31;68134;51.984;5.652;2023-11-21T07:17:35;11.4;77.5
78793;SHT31;68134;51.984;5.652;2023-11-21T07:20:05;11.4;77.6
78793;SHT31;68134;51.984;5.652;2023-11-21T07:22:33;11.4;77.6
78793;SHT31;68134;51.984;5.652;2023-11-21T07:25:02;11.4;77.6
78793;SHT31;68134;51.984;5.652;2023-11-21T07:27:31;11.4;77.6
78793;SHT31;68134;51.984;5.652;2023-11-21T07:30:02;11.4;77.7
78793;SHT31;68134;51.984;5.652;2023-11-21T07:32:32;11.4;77.7
78793;SHT31;68134;51.984;5.652;2023-11-21T07:35:01;11.5;77.7
78793;SHT31;68134;51.984;5.652;2023-11-21T07:37:29;11.5;77.5
78793;SHT31;68134;51.984;5.652;2023-11-21T07:40:01;11.5;77.4
78793;SHT31;68134;51.984;5.652;2023-11-21T07:42:29;11.5;77.4
78793;SHT31;68134;51.984;5.652;2023-11-21T07:44:58;11.6;77.5
78793;SHT31;68134;51.984;5.652;2023-11-21T07:47:26;11.6;77.5
78793;SHT31;68134;51.984;5.652;2023-11-21T07:49:57;11.6;77.6
78793;SHT31;68134;51.984;5.652;2023-11-21T07:52:25;11.6;77.5
78793;SHT31;68134;51.984;5.652;2023-11-21T07:54:54;11.7;77.4
78793;SHT31;68134;51.984;5.652;2023-11-21T07:57:22;11.7;77.4
78793;SHT31;68134;51.984;5.652;2023-11-21T07:59:51;11.7;77.3
78793;SHT31;68134;51.984;5.652;2023-11-21T08:02:22;11.7;77.3
78793;SHT31;68134;51.984;5.652;2023-11-21T08:04:52;11.8;77.3
78793;SHT31;68134;51.984;5.652;2023-11-21T08:07:23;11.8;77.1
78793;SHT31;68134;51.984;5.652;2023-11-21T08:09:52;11.8;77.2
78793;SHT31;68134;51.984;5.652;2023-11-21T08:12:20;11.8;77.3
78793;SHT31;68134;51.984;5.652;2023-11-21T08:14:50;11.9;77.2
78793;SHT31;68134;51.984;5.652;2023-11-21T08:17:19;11.9;77.0
78793;SHT31;68134;51.984;5.652;2023-11-21T08:19:48;11.9;77.1
78793;SHT31;68134;51.984;5.652;2023-11-21T08:22:17;11.9;77.2
78793;SHT31;68134;51.984;5.652;2023-11-21T08:24:47;11.9;77.1
78793;SHT31;68134;51.984;5.652;2023-11-21T08:27:18;11.9;77.2
78793;SHT31;68134;51.984;5.652;2023-11-21T08:29:46;12.0;77.2
78793;SHT31;68134;51.984;5.652;2023-11-21T08:32:15;12.0;77.4
78793;SHT31;68134;51.984;5.652;2023-11-21T08:34:43;12.0;77.5
78793;SHT31;68134;51.984;5.652;2023-11-21T08:37:14;12.0;77.8
78793;SHT31;68134;51.984;5.652;2023-11-21T08:39:43;12.0;77.9
78793;SHT31;68134;51.984;5.652;2023-11-21T08:42:12;12.0;77.9
78793;SHT31;68134;51.984;5.652;2023-11-21T08:44:41;12.0;77.9
78793;SHT31;68134;51.984;5.652;2023-11-21T08:47:09;12.1;77.8
78793;SHT31;68134;51.984;5.652;2023-11-21T08:49:38;12.1;77.9
78793;SHT31;68134;51.984;5.652;2023-11-21T08:52:08;12.1;77.9
78793;SHT31;68134;51.984;5.652;2023-11-21T08:54:39;12.2;77.7
78793;SHT31;68134;51.984;5.652;2023-11-21T08:57:07;12.2;77.7
78793;SHT31;68134;51.984;5.652;2023-11-21T08:59:36;12.2;77.7
78793;SHT31;68134;51.984;5.652;2023-11-21T09:02:05;12.3;77.2
78793;SHT31;68134;51.984;5.652;2023-11-21T09:04:36;12.3;77.0
78793;SHT31;68134;51.984;5.652;2023-11-21T09:07:05;12.3;77.0
78793;SHT31;68134;51.984;5.652;2023-11-21T09:09:33;12.4;76.9
78793;SHT31;68134;51.984;5.652;2023-11-21T09:12:02;12.4;77.0
78793;SHT31;68134;51.984;5.652;2023-11-21T09:14:31;12.4;77.1
78793;SHT31;68134;51.984;5.652;2023-11-21T09:17:02;12.4;77.2
78793;SHT31;68134;51.984;5.652;2023-11-21T09:19:30;12.4;77.3
78793;SHT31;68134;51.984;5.652;2023-11-21T09:21:59;12.4;77.2
78793;SHT31;68134;51.984;5.652;2023-11-21T09:24:27;12.4;77.1
78793;SHT31;68134;51.984;5.652;2023-11-21T09:26:56;12.4;77.3
78793;SHT31;68134;51.984;5.652;2023-11-21T09:29:26;12.5;77.5
78793;SHT31;68134;51.984;5.652;2023-11-21T09:31:55;12.5;77.6
78793;SHT31;68134;51.984;5.652;2023-11-21T09:34:25;12.5;77.7
78793;SHT31;68134;51.984;5.652;2023-11-21T09:36:54;12.5;77.7
78793;SHT31;68134;51.984;5.652;2023-11-21T09:39:24;12.5;77.7
78793;SHT31;68134;51.984;5.652;2023-11-21T09:42:08;12.5;77.9
78793;SHT31;68134;51.984;5.652;2023-11-21T09:44:36;12.5;78.1
78793;SHT31;68134;51.984;5.652;2023-11-21T09:47:10;12.5;78.3
78793;SHT31;68134;51.984;5.652;2023-11-21T09:49:47;12.6;78.4
78793;SHT31;68134;51.984;5.652;2023-11-21T09:52:21;12.6;79.1
78793;SHT31;68134;51.984;5.652;2023-11-21T09:54:53;12.6;79.6
78793;SHT31;68134;51.984;5.652;2023-11-21T09:57:24;12.7;79.4
78793;SHT31;68134;51.984;5.652;2023-11-21T09:59:55;12.7;79.1
78793;SHT31;68134;51.984;5.652;2023-11-21T10:02:27;12.8;79.3
78793;SHT31;68134;51.984;5.652;2023-11-21T10:04:57;12.8;79.6
78793;SHT31;68134;51.984;5.652;2023-11-21T10:07:28;12.8;79.2
78793;SHT31;68134;51.984;5.652;2023-11-21T10:10:01;12.9;79.1
78793;SHT31;68134;51.984;5.652;2023-11-21T10:12:31;12.9;78.7
78793;SHT31;68134;51.984;5.652;2023-11-21T10:15:03;12.9;78.7
78793;SHT31;68134;51.984;5.652;2023-11-21T10:17:36;12.9;77.8
78793;SHT31;68134;51.984;5.652;2023-11-21T10:20:10;12.9;77.7
78793;SHT31;68134;51.984;5.652;2023-11-21T10:22:41;13.0;77.5
78793;SHT31;68134;51.984;5.652;2023-11-21T10:25:10;13.0;77.5
78793;SHT31;68134;51.984;5.652;2023-11-21T10:27:41;13.0;77.0
78793;SHT31;68134;51.984;5.652;2023-11-21T10:30:11;13.0;77.1
78793;SHT31;68134;51.984;5.652;2023-11-21T10:32:42;13.0;76.9
78793;SHT31;68134;51.984;5.652;2023-11-21T10:35:11;13.0;76.7
78793;SHT31;68134;51.984;5.652;2023-11-21T10:37:40;12.9;76.5
78793;SHT31;68134;51.984;5.652;2023-11-21T10:40:10;12.9;76.6
78793;SHT31;68134;51.984;5.652;2023-11-21T10:42:40;12.9;76.5
78793;SHT31;68134;51.984;5.652;2023-11-21T10:45:10;12.9;76.7
78793;SHT31;68134;51.984;5.652;2023-11-21T10:47:41;12.9;76.8
78793;SHT31;68134;51.984;5.652;2023-11-21T10:50:10;12.9;76.9
78793;SHT31;68134;51.984;5.652;2023-11-21T10:52:39;12.9;77.5
78793;SHT31;68134;51.984;5.652;2023-11-21T10:55:19;12.9;77.8
78793;SHT31;68134;51.984;5.652;2023-11-21T10:57:52;12.9;77.9
78793;SHT31;68134;51.984;5.652;2023-11-21T11:00:22;12.9;77.6
78793;SHT31;68134;51.984;5.652;2023-11-21T11:02:52;12.9;77.5
78793;SHT31;68134;51.984;5.652;2023-11-21T11:05:23;12.9;76.8
78793;SHT31;68134;51.984;5.652;2023-11-21T11:07:58;12.9;76.8
78793;SHT31;68134;51.984;5.652;2023-11-21T11:10:28;12.9;76.7
78793;SHT31;68134;51.984;5.652;2023-11-21T11:12:58;12.9;76.7
78793;SHT31;68134;51.984;5.652;2023-11-21T11:15:28;12.9;76.2
78793;SHT31;68134;51.984;5.652;2023-11-21T11:17:56;12.8;76.3
78793;SHT31;68134;51.984;5.652;2023-11-21T11:20:30;12.8;76.4
78793;SHT31;68134;51.984;5.652;2023-11-21T11:23:13;12.8;76.5
78793;SHT31;68134;51.984;5.652;2023-11-21T11:25:57;12.8;76.5
78793;SHT31;68134;51.984;5.652;2023-11-21T11:28:38;12.8;76.2
78793;SHT31;68134;51.984;5.652;2023-11-21T11:31:21;12.7;76.1
78793;SHT31;68134;51.984;5.652;2023-11-21T11:33:58;12.7;76.6
78793;SHT31;68134;51.984;5.652;2023-11-21T11:36:35;12.7;77.0
78793;SHT31;68134;51.984;5.652;2023-11-21T11:39:28;12.7;77.0
78793;SHT31;68134;51.984;5.652;2023-11-21T11:42:02;12.7;77.3
78793;SHT31;68134;51.984;5.652;2023-11-21T11:44:50;12.7;77.4
78793;SHT31;68134;51.984;5.652;2023-11-21T11:47:25;12.7;77.7
78793;SHT31;68134;51.984;5.652;2023-11-21T11:50:01;12.7;77.6
78793;SHT31;68134;51.984;5.652;2023-11-21T11:52:38;12.7;77.7
78793;SHT31;68134;51.984;5.652;2023-11-21T11:55:09;12.7;77.6
78793;SHT31;68134;51.984;5.652;2023-11-21T11:57:40;12.7;77.6
78793;SHT31;68134;51.984;5.652;2023-11-21T12:00:09;12.7;77.9
78793;SHT31;68134;51.984;5.652;2023-11-21T12:02:44;12.7;78.1
78793;SHT31;68134;51.984;5.652;2023-11-21T12:05:15;12.7;78.2
78793;SHT31;68134;51.984;5.652;2023-11-21T12:07:46;12.7;77.8
78793;SHT31;68134;51.984;5.652;2023-11-21T12:10:17;12.7;77.6
78793;SHT31;68134;51.984;5.652;2023-11-21T12:12:50;12.7;77.9
78793;SHT31;68134;51.984;5.652;2023-11-21T12:15:20;12.8;78.3
78793;SHT31;68134;51.984;5.652;2023-11-21T12:17:50;12.8;78.0
78793;SHT31;68134;51.984;5.652;2023-11-21T12:20:21;12.8;77.8
78793;SHT31;68134;51.984;5.652;2023-11-21T12:22:52;12.9;77.6
78793;SHT31;68134;51.984;5.652;2023-11-21T12:25:22;12.9;77.2
78793;SHT31;68134;51.984;5.652;2023-11-21T12:27:56;12.9;77.1
78793;SHT31;68134;51.984;5.652;2023-11-21T12:30:27;12.9;77.0
78793;SHT31;68134;51.984;5.652;2023-11-21T12:32:58;12.9;76.6
78793;SHT31;68134;51.984;5.652;2023-11-21T12:35:28;12.9;76.7
78793;SHT31;68134;51.984;5.652;2023-11-21T12:38:01;12.9;76.2
78793;SHT31;68134;51.984;5.652;2023-11-21T12:40:33;12.9;76.5
78793;SHT31;68134;51.984;5.652;2023-11-21T12:43:02;12.9;76.6
78793;SHT31;68134;51.984;5.652;2023-11-21T12:45:31;12.9;76.2
78793;SHT31;68134;51.984;5.652;2023-11-21T12:48:01;12.9;76.4
78793;SHT31;68134;51.984;5.652;2023-11-21T12:50:35;12.9;76.2
78793;SHT31;68134;51.984;5.652;2023-11-21T12:53:05;12.9;76.0
78793;SHT31;68134;51.984;5.652;2023-11-21T12:55:35;12.9;75.9
78793;SHT31;68134;51.984;5.652;2023-11-21T12:58:05;12.9;75.7
78793;SHT31;68134;51.984;5.652;2023-11-21T13:00:36;12.9;75.8
78793;SHT31;68134;51.984;5.652;2023-11-21T13:03:08;12.9;75.8
78793;SHT31;68134;51.984;5.652;2023-11-21T13:05:40;12.9;75.8
78793;SHT31;68134;51.984;5.652;2023-11-21T13:08:12;12.9;76.1
78793;SHT31;68134;51.984;5.652;2023-11-21T13:10:51;12.9;76.1
78793;SHT31;68134;51.984;5.652;2023-11-21T13:13:22;12.9;76.5
78793;SHT31;68134;51.984;5.652;2023-11-21T13:15:52;12.9;76.6
78793;SHT31;68134;51.984;5.652;2023-11-21T13:18:22;12.9;76.6
78793;SHT31;68134;51.984;5.652;2023-11-21T13:20:53;12.9;76.9
78793;SHT31;68134;51.984;5.652;2023-11-21T13:23:23;12.9;77.0
78793;SHT31;68134;51.984;5.652;2023-11-21T13:25:52;12.9;76.3
78793;SHT31;68134;51.984;5.652;2023-11-21T13:28:21;12.9;75.9
78793;SHT31;68134;51.984;5.652;2023-11-21T13:30:52;13.0;75.7
78793;SHT31;68134;51.984;5.652;2023-11-21T13:33:20;13.0;75.6
78793;SHT31;68134;51.984;5.652;2023-11-21T13:35:54;13.0;75.0
78793;SHT31;68134;51.984;5.652;2023-11-21T13:38:23;13.0;75.0
78793;SHT31;68134;51.984;5.652;2023-11-21T13:40:58;13.0;75.2
78793;SHT31;68134;51.984;5.652;2023-11-21T13:43:27;13.0;75.0
78793;SHT31;68134;51.984;5.652;2023-11-21T13:45:57;13.0;75.0
78793;SHT31;68134;51.984;5.652;2023-11-21T13:48:32;13.0;75.0
78793;SHT31;68134;51.984;5.652;2023-11-21T13:51:07;13.1;74.7
78793;SHT31;68134;51.984;5.652;2023-11-21T13:53:41;13.1;74.8
78793;SHT31;68134;51.984;5.652;2023-11-21T13:56:11;13.1;74.4
78793;SHT31;68134;51.984;5.652;2023-11-21T13:58:42;13.1;74.2
78793;SHT31;68134;51.984;5.652;2023-11-21T14:01:18;13.1;74.4
78793;SHT31;68134;51.984;5.652;2023-11-21T14:04:37;13.1;74.3
78793;SHT31;68134;51.984;5.652;2023-11-21T14:07:20;13.1;74.6
78793;SHT31;68134;51.984;5.652;2023-11-21T14:09:58;13.1;74.2
78793;SHT31;68134;51.984;5.652;2023-11-21T14:12:27;13.1;74.5
78793;SHT31;68134;51.984;5.652;2023-11-21T14:15:00;13.0;73.9
78793;SHT31;68134;51.984;5.652;2023-11-21T14:17:31;13.0;73.6
78793;SHT31;68134;51.984;5.652;2023-11-21T14:20:00;13.0;73.4
78793;SHT31;68134;51.984;5.652;2023-11-21T14:22:31;12.9;73.4
78793;SHT31;68134;51.984;5.652;2023-11-21T14:25:00;12.9;73.4
78793;SHT31;68134;51.984;5.652;2023-11-21T14:27:30;12.8;74.0
78793;SHT31;68134;51.984;5.652;2023-11-21T14:29:59;12.8;73.8
78793;SHT31;68134;51.984;5.652;2023-11-21T14:32:28;12.8;73.9
78793;SHT31;68134;51.984;5.652;2023-11-21T14:34:57;12.7;74.0
78793;SHT31;68134;51.984;5.652;2023-11-21T14:37:26;12.7;73.6
78793;SHT31;68134;51.984;5.652;2023-11-21T14:39:54;12.6;74.0
78793;SHT31;68134;51.984;5.652;2023-11-21T14:42:23;12.6;74.1
78793;SHT31;68134;51.984;5.652;2023-11-21T14:44:56;12.6;74.5
78793;SHT31;68134;51.984;5.652;2023-11-21T14:47:29;12.6;74.5
78793;SHT31;68134;51.984;5.652;2023-11-21T14:50:00;12.6;74.4
78793;SHT31;68134;51.984;5.652;2023-11-21T14:52:34;12.5;74.3
78793;SHT31;68134;51.984;5.652;2023-11-21T14:55:08;12.5;74.7
78793;SHT31;68134;51.984;5.652;2023-11-21T14:57:55;12.5;74.3
78793;SHT31;68134;51.984;5.652;2023-11-21T15:00:28;12.5;74.6
78793;SHT31;68134;51.984;5.652;2023-11-21T15:04:01;12.4;74.4
78793;SHT31;68134;51.984;5.652;2023-11-21T15:06:34;12.4;74.1
78793;SHT31;68134;51.984;5.652;2023-11-21T15:09:05;12.4;74.4
78793;SHT31;68134;51.984;5.652;2023-11-21T15:11:56;12.3;74.2
78793;SHT31;68134;51.984;5.652;2023-11-21T15:14:29;12.3;73.7
78793;SHT31;68134;51.984;5.652;2023-11-21T15:17:00;12.3;73.6
78793;SHT31;68134;51.984;5.652;2023-11-21T15:19:31;12.2;73.7
78793;SHT31;68134;51.984;5.652;2023-11-21T15:22:01;12.2;73.0
78793;SHT31;68134;51.984;5.652;2023-11-21T15:24:30;12.1;73.3
78793;SHT31;68134;51.984;5.652;2023-11-21T15:26:59;12.1;72.7
78793;SHT31;68134;51.984;5.652;2023-11-21T15:29:29;12.0;72.5
78793;SHT31;68134;51.984;5.652;2023-11-21T15:31:57;12.0;72.9
78793;SHT31;68134;51.984;5.652;2023-11-21T15:34:27;12.0;72.5
78793;SHT31;68134;51.984;5.652;2023-11-21T15:36:57;11.9;72.7
78793;SHT31;68134;51.984;5.652;2023-11-21T15:39:28;11.9;71.5
78793;SHT31;68134;51.984;5.652;2023-11-21T15:41:58;11.9;71.3
78793;SHT31;68134;51.984;5.652;2023-11-21T15:44:26;11.8;71.1
78793;SHT31;68134;51.984;5.652;2023-11-21T15:46:57;11.8;70.9
78793;SHT31;68134;51.984;5.652;2023-11-21T15:49:27;11.8;70.9
78793;SHT31;68134;51.984;5.652;2023-11-21T15:52:00;11.7;70.9
78793;SHT31;68134;51.984;5.652;2023-11-21T15:54:29;11.7;70.9
78793;SHT31;68134;51.984;5.652;2023-11-21T15:56:57;11.6;70.7
78793;SHT31;68134;51.984;5.652;2023-11-21T15:59:27;11.6;70.7
78793;SHT31;68134;51.984;5.652;2023-11-21T16:01:57;11.6;70.3
78793;SHT31;68134;51.984;5.652;2023-11-21T16:04:28;11.5;70.1
78793;SHT31;68134;51.984;5.652;2023-11-21T16:06:56;11.5;69.2
78793;SHT31;68134;51.984;5.652;2023-11-21T16:09:25;11.4;69.0
78793;SHT31;68134;51.984;5.652;2023-11-21T16:11:57;11.4;69.3
78793;SHT31;68134;51.984;5.652;2023-11-21T16:14:28;11.4;69.5
78793;SHT31;68134;51.984;5.652;2023-11-21T16:17:02;11.3;69.0
78793;SHT31;68134;51.984;5.652;2023-11-21T16:19:33;11.3;68.7
78793;SHT31;68134;51.984;5.652;2023-11-21T16:22:02;11.2;68.6
78793;SHT31;68134;51.984;5.652;2023-11-21T16:24:32;11.1;69.1